Elk Horn, Idaho
Current Conditions -  °F | °C
As of 2:55 PM on Monday 20 Oct 2014 (Local Time) from KSUN Reporting Station
Scattered Clouds Scattered Clouds  
Wind Chill: 70°   Ceiling: Unl
Heat Index: 70°   Visibility: 10mi
Dew Point: 37°   Wind: 12mph
Humidity: 31%   Direction: 140°SE
Pressure: 29.97"   Gusts: NA
Location:  43.6966°N, 114.35°W
Report Text: KSUN 202055Z 14010KT 10SM SCT100 21/03 A2997
Loading
Personal Weather Stations






























Interactive Weather Map New forecast layout! Learn more

10-Day Weather Forecast

Advertisements
Track Severe Weather on mobile